Ai Maru — JD2031 — position and weather

sailwx.info

Track history (hours):
 
Tides and Currents Weather Stations Pressure Air Temp Water Temp Dewpoint Dewpoint Depression Visibility Wind Speed Wind Dir Waves Ship Positions

Ai Maru

Last reported at 2018-Feb-25 04:00 UTC. Time now 2018-Feb-25 04:09 UTC.
Position N 33°55' E 131°12'.

Length 105 m; draft 5.2 m.

Type: Tanker. MMSI: 431501797.

Date/timePositionNaut miles runAvg speedWind from/ knotsBaromVisibWave heightAir tempDewpointWater temp
2018-Feb-25 04:00N 33°55' E 131°12'4 7.8
2018-Feb-25 03:30N 33°56' E 131°07'713.8
2018-Feb-25 03:01N 33°58' E 130°60'612.0
2018-Feb-25 02:30N 33°54' E 130°54'612.5
2018-Feb-25 02:01N 34°00' E 130°52'714.1
2018-Feb-25 01:30N 34°07' E 130°50'714.0
2018-Feb-25 01:00N 34°14' E 130°48'713.7
2018-Feb-25 00:31N 34°20' E 130°47'713.9
2018-Feb-25 00:00N 34°26' E 130°52'  
2018-Feb-20 18:25N 34°33' E 131°04'614.7
2018-Feb-20 18:00N 34°29' E 130°58'714.4
2018-Feb-20 17:31N 34°25' E 130°51'713.7
2018-Feb-20 17:00N 34°18' E 130°48'714.4
2018-Feb-20 16:30N 34°11' E 130°50'714.3
2018-Feb-20 16:00N 34°04' E 130°52'713.6
2018-Feb-20 15:31N 33°57' E 130°52'4 7.4
2018-Feb-20 15:00N 33°57' E 130°57'510.4
2018-Feb-20 14:30N 33°58' E 131°03'612.4
2018-Feb-20 14:00N 33°55' E 131°09'1 2.7
2018-Feb-20 13:29N 33°54' E 131°11'0 0.0
2018-Feb-20 12:59N 33°54' E 131°11'0 0.1
2018-Feb-20 12:29N 33°54' E 131°11'2 3.9
2018-Feb-20 12:01N 33°56' E 131°12'0 0.7
2018-Feb-20 11:30N 33°56' E 131°11'0 0.0
2018-Feb-20 10:59N 33°56' E 131°11'0 0.0
2018-Feb-20 10:30N 33°56' E 131°11'0 0.0
2018-Feb-20 10:00N 33°56' E 131°11'0 0.0
2018-Feb-20 09:30N 33°56' E 131°11'0 0.0
2018-Feb-20 09:00N 33°56' E 131°11'0 0.0
2018-Feb-20 08:30N 33°56' E 131°11'0 0.0
2018-Feb-20 08:00N 33°56' E 131°11'0 0.0
2018-Feb-20 07:30N 33°56' E 131°11'0 0.0
2018-Feb-20 07:00N 33°56' E 131°11'0 0.0
2018-Feb-20 06:30N 33°56' E 131°11'2 3.6
2018-Feb-20 06:00N 33°54' E 131°12'1 1.3
2018-Feb-20 05:28N 33°54' E 131°11'3 6.6
2018-Feb-20 05:01N 33°55' E 131°08'612.7
2018-Feb-20 04:30N 33°58' E 131°01'510.3
2018-Feb-20 04:00N 33°55' E 130°56'4 8.1
2018-Feb-20 03:30N 33°57' E 130°52'714.2
2018-Feb-20 03:00N 34°04' E 130°51'815.2
2018-Feb-20 02:30N 34°12' E 130°49'815.3
2018-Feb-20 02:00N 34°20' E 130°48'  
2018-Feb-17 18:16N 34°29' E 130°59'413.6
2018-Feb-17 18:00N 34°27' E 130°56'714.0
2018-Feb-17 17:30N 34°23' E 130°49'613.0
2018-Feb-17 17:00N 34°16' E 130°48'714.5
2018-Feb-17 16:30N 34°09' E 130°50'714.1
2018-Feb-17 16:00N 34°02' E 130°52'612.7
2018-Feb-17 15:30N 33°56' E 130°53'510.1
2018-Feb-17 15:00N 33°58' E 130°58'712.9
2018-Feb-17 14:30N 33°56' E 131°06'510.7
2018-Feb-17 14:00N 33°55' E 131°12'2 3.0
2018-Feb-17 13:30N 33°56' E 131°11'0 0.0
2018-Feb-17 13:00N 33°56' E 131°11'0 0.0
2018-Feb-17 12:30N 33°56' E 131°11'0 0.0
2018-Feb-17 12:00N 33°56' E 131°11'0 0.0
2018-Feb-17 11:30N 33°56' E 131°11'0 0.0
2018-Feb-17 11:00N 33°56' E 131°11'0 0.0
2018-Feb-17 10:30N 33°56' E 131°11'0 0.0
2018-Feb-17 10:01N 33°56' E 131°11'0 0.0
2018-Feb-17 09:31N 33°56' E 131°11'0 0.1
2018-Feb-17 09:01N 33°56' E 131°11'2 4.2
2018-Feb-17 08:30N 33°54' E 131°10'713.8
2018-Feb-17 08:00N 33°58' E 131°03'612.1
2018-Feb-17 07:31N 33°56' E 130°56'4 8.1
2018-Feb-17 07:00N 33°58' E 130°53'714.8
2018-Feb-17 06:31N 34°05' E 130°51'814.8
2018-Feb-17 06:00N 34°13' E 130°49'714.1
2018-Feb-17 05:30N 34°20' E 130°48'712.8
2018-Feb-17 04:58N 34°26' E 130°52'  
Track history (hours):
 
Tides and Currents Weather Stations Pressure Air Temp Water Temp Dewpoint Dewpoint Depression Visibility Wind Speed Wind Dir Waves Ship Positions

Ai Maru

Last reported at 2018-Feb-25 04:00 UTC. Time now 2018-Feb-25 04:09 UTC.
Position N 33°55' E 131°12'.

Length 105 m; draft 5.2 m.

Type: Tanker. MMSI: 431501797.

Date/timePositionNaut miles runAvg speedWind from/ knotsBaromVisibWave heightAir tempDewpointWater temp
2018-Feb-25 04:00N 33°55' E 131°12'4 7.8
2018-Feb-25 03:30N 33°56' E 131°07'713.8
2018-Feb-25 03:01N 33°58' E 130°60'612.0
2018-Feb-25 02:30N 33°54' E 130°54'612.5
2018-Feb-25 02:01N 34°00' E 130°52'714.1
2018-Feb-25 01:30N 34°07' E 130°50'714.0
2018-Feb-25 01:00N 34°14' E 130°48'713.7
2018-Feb-25 00:31N 34°20' E 130°47'713.9
2018-Feb-25 00:00N 34°26' E 130°52'  
2018-Feb-20 18:25N 34°33' E 131°04'614.7
2018-Feb-20 18:00N 34°29' E 130°58'714.4
2018-Feb-20 17:31N 34°25' E 130°51'713.7
2018-Feb-20 17:00N 34°18' E 130°48'714.4
2018-Feb-20 16:30N 34°11' E 130°50'714.3
2018-Feb-20 16:00N 34°04' E 130°52'713.6
2018-Feb-20 15:31N 33°57' E 130°52'4 7.4
2018-Feb-20 15:00N 33°57' E 130°57'510.4
2018-Feb-20 14:30N 33°58' E 131°03'612.4
2018-Feb-20 14:00N 33°55' E 131°09'1 2.7
2018-Feb-20 13:29N 33°54' E 131°11'0 0.0
2018-Feb-20 12:59N 33°54' E 131°11'0 0.1
2018-Feb-20 12:29N 33°54' E 131°11'2 3.9
2018-Feb-20 12:01N 33°56' E 131°12'0 0.7
2018-Feb-20 11:30N 33°56' E 131°11'0 0.0
2018-Feb-20 10:59N 33°56' E 131°11'0 0.0
2018-Feb-20 10:30N 33°56' E 131°11'0 0.0
2018-Feb-20 10:00N 33°56' E 131°11'0 0.0
2018-Feb-20 09:30N 33°56' E 131°11'0 0.0
2018-Feb-20 09:00N 33°56' E 131°11'0 0.0
2018-Feb-20 08:30N 33°56' E 131°11'0 0.0
2018-Feb-20 08:00N 33°56' E 131°11'0 0.0
2018-Feb-20 07:30N 33°56' E 131°11'0 0.0
2018-Feb-20 07:00N 33°56' E 131°11'0 0.0
2018-Feb-20 06:30N 33°56' E 131°11'2 3.6
2018-Feb-20 06:00N 33°54' E 131°12'1 1.3
2018-Feb-20 05:28N 33°54' E 131°11'3 6.6
2018-Feb-20 05:01N 33°55' E 131°08'612.7
2018-Feb-20 04:30N 33°58' E 131°01'510.3
2018-Feb-20 04:00N 33°55' E 130°56'4 8.1
2018-Feb-20 03:30N 33°57' E 130°52'714.2
2018-Feb-20 03:00N 34°04' E 130°51'815.2
2018-Feb-20 02:30N 34°12' E 130°49'815.3
2018-Feb-20 02:00N 34°20' E 130°48'  
2018-Feb-17 18:16N 34°29' E 130°59'413.6
2018-Feb-17 18:00N 34°27' E 130°56'714.0
2018-Feb-17 17:30N 34°23' E 130°49'613.0
2018-Feb-17 17:00N 34°16' E 130°48'714.5
2018-Feb-17 16:30N 34°09' E 130°50'714.1
2018-Feb-17 16:00N 34°02' E 130°52'612.7
2018-Feb-17 15:30N 33°56' E 130°53'510.1
2018-Feb-17 15:00N 33°58' E 130°58'712.9
2018-Feb-17 14:30N 33°56' E 131°06'510.7
2018-Feb-17 14:00N 33°55' E 131°12'2 3.0
2018-Feb-17 13:30N 33°56' E 131°11'0 0.0
2018-Feb-17 13:00N 33°56' E 131°11'0 0.0
2018-Feb-17 12:30N 33°56' E 131°11'0 0.0
2018-Feb-17 12:00N 33°56' E 131°11'0 0.0
2018-Feb-17 11:30N 33°56' E 131°11'0 0.0
2018-Feb-17 11:00N 33°56' E 131°11'0 0.0
2018-Feb-17 10:30N 33°56' E 131°11'0 0.0
2018-Feb-17 10:01N 33°56' E 131°11'0 0.0
2018-Feb-17 09:31N 33°56' E 131°11'0 0.1
2018-Feb-17 09:01N 33°56' E 131°11'2 4.2
2018-Feb-17 08:30N 33°54' E 131°10'713.8
2018-Feb-17 08:00N 33°58' E 131°03'612.1
2018-Feb-17 07:31N 33°56' E 130°56'4 8.1
2018-Feb-17 07:00N 33°58' E 130°53'714.8
2018-Feb-17 06:31N 34°05' E 130°51'814.8
2018-Feb-17 06:00N 34°13' E 130°49'714.1
2018-Feb-17 05:30N 34°20' E 130°48'712.8
2018-Feb-17 04:58N 34°26' E 130°52'  

Dump ship's entire track history